Servet Ana — TCMF7 — position and weather

sailwx.info

Track history (hours):
 
Tides and Currents Weather Stations Pressure Air Temp Water Temp Dewpoint Dewpoint Depression Visibility Wind Speed Wind Dir Waves Ship Positions

Servet Ana

Last reported at 2014-Dec-07 05:17 UTC. Time now 2014-Dec-18 22:23 UTC.
Position N 36°32' E 013°42'.
Warning: this ship's position is 11 days out of date.

Length 178 m; draft 9.7 m.

Type: Ship. MMSI: 271042643.

Date/timePositionNaut miles runAvg speedWind from/ knotsBaromVisibWave heightAir tempDewpointWater temp
2014-Dec-07 05:17N 36°32' E 013°42'3312.1
2014-Dec-07 02:33N 36°22' E 014°22'39912.4
2014-Dec-05 18:24N 36°23' E 022°37'1112.7
2014-Dec-05 17:33N 36°25' E 022°50'7311.8
2014-Dec-05 11:24N 37°17' E 023°53'1113.1
2014-Dec-05 10:33N 37°26' E 024°01'1513.3
2014-Dec-05 09:23N 37°39' E 024°11'1113.0
2014-Dec-05 08:32N 37°47' E 024°21'2913.0
2014-Dec-05 06:20N 38°09' E 024°44'11913.0
2014-Dec-04 21:07N 39°56' E 025°51'14411.9
2014-Dec-04 09:06N 40°54' E 028°44'712.3
2014-Dec-04 08:31N 40°56' E 028°53'4 3.7
2014-Dec-04 07:30N 40°59' E 028°56'0 0.1
2014-Dec-04 06:30N 40°59' E 028°56'0 0.0
2014-Dec-04 04:18N 40°59' E 028°56'0 0.0
2014-Dec-04 03:30N 40°59' E 028°56'0 0.1
2014-Dec-04 02:30N 40°59' E 028°56'4 3.9
2014-Dec-04 01:33N 41°01' E 028°60'16 3.1
2014-Dec-03 20:31N 41°17' E 029°01'0 0.0
2014-Dec-03 18:10N 41°17' E 029°01'0 0.0
2014-Dec-03 16:10N 41°17' E 029°01'0 0.0
2014-Dec-03 11:28N 41°17' E 029°01'0 0.0
2014-Dec-03 10:31N 41°17' E 029°01'0 0.0
2014-Dec-03 09:28N 41°17' E 029°01'1 0.6
2014-Dec-03 07:08N 41°18' E 029°02'4 7.0
2014-Dec-03 06:33N 41°21' E 029°06'1 1.3
2014-Dec-03 05:33N 41°22' E 029°06'1 0.8
2014-Dec-03 04:32N 41°23' E 029°06'  
Track history (hours):
 
Tides and Currents Weather Stations Pressure Air Temp Water Temp Dewpoint Dewpoint Depression Visibility Wind Speed Wind Dir Waves Ship Positions

Servet Ana

Last reported at 2014-Dec-07 05:17 UTC. Time now 2014-Dec-18 22:23 UTC.
Position N 36°32' E 013°42'.
Warning: this ship's position is 11 days out of date.

Length 178 m; draft 9.7 m.

Type: Ship. MMSI: 271042643.

Date/timePositionNaut miles runAvg speedWind from/ knotsBaromVisibWave heightAir tempDewpointWater temp
2014-Dec-07 05:17N 36°32' E 013°42'3312.1
2014-Dec-07 02:33N 36°22' E 014°22'39912.4
2014-Dec-05 18:24N 36°23' E 022°37'1112.7
2014-Dec-05 17:33N 36°25' E 022°50'7311.8
2014-Dec-05 11:24N 37°17' E 023°53'1113.1
2014-Dec-05 10:33N 37°26' E 024°01'1513.3
2014-Dec-05 09:23N 37°39' E 024°11'1113.0
2014-Dec-05 08:32N 37°47' E 024°21'2913.0
2014-Dec-05 06:20N 38°09' E 024°44'11913.0
2014-Dec-04 21:07N 39°56' E 025°51'14411.9
2014-Dec-04 09:06N 40°54' E 028°44'712.3
2014-Dec-04 08:31N 40°56' E 028°53'4 3.7
2014-Dec-04 07:30N 40°59' E 028°56'0 0.1
2014-Dec-04 06:30N 40°59' E 028°56'0 0.0
2014-Dec-04 04:18N 40°59' E 028°56'0 0.0
2014-Dec-04 03:30N 40°59' E 028°56'0 0.1
2014-Dec-04 02:30N 40°59' E 028°56'4 3.9
2014-Dec-04 01:33N 41°01' E 028°60'16 3.1
2014-Dec-03 20:31N 41°17' E 029°01'0 0.0
2014-Dec-03 18:10N 41°17' E 029°01'0 0.0
2014-Dec-03 16:10N 41°17' E 029°01'0 0.0
2014-Dec-03 11:28N 41°17' E 029°01'0 0.0
2014-Dec-03 10:31N 41°17' E 029°01'0 0.0
2014-Dec-03 09:28N 41°17' E 029°01'1 0.6
2014-Dec-03 07:08N 41°18' E 029°02'4 7.0
2014-Dec-03 06:33N 41°21' E 029°06'1 1.3
2014-Dec-03 05:33N 41°22' E 029°06'1 0.8
2014-Dec-03 04:32N 41°23' E 029°06'  

Dump ship's entire track history